sensor_id;sensor_type;location;lat;lon;timestamp;P1;durP1;ratioP1;P2;durP2;ratioP2
52956;SDS011;38819;42.692;23.342;2023-03-01T00:02:19;8.15;;;5.22;;
52956;SDS011;38819;42.692;23.342;2023-03-01T00:04:45;7.18;;;5.35;;
52956;SDS011;38819;42.692;23.342;2023-03-01T00:07:11;4.97;;;4.45;;
52956;SDS011;38819;42.692;23.342;2023-03-01T00:09:37;6.07;;;4.93;;
52956;SDS011;38819;42.692;23.342;2023-03-01T00:12:05;7.38;;;4.80;;
52956;SDS011;38819;42.692;23.342;2023-03-01T00:14:31;4.53;;;3.95;;
52956;SDS011;38819;42.692;23.342;2023-03-01T00:16:57;5.63;;;3.60;;
52956;SDS011;38819;42.692;23.342;2023-03-01T00:19:22;4.60;;;4.00;;
52956;SDS011;38819;42.692;23.342;2023-03-01T00:21:48;8.30;;;6.13;;
52956;SDS011;38819;42.692;23.342;2023-03-01T00:24:13;7.30;;;5.80;;
52956;SDS011;38819;42.692;23.342;2023-03-01T00:26:39;5.03;;;4.45;;
52956;SDS011;38819;42.692;23.342;2023-03-01T00:29:05;5.63;;;3.70;;
52956;SDS011;38819;42.692;23.342;2023-03-01T00:31:31;4.63;;;3.95;;
52956;SDS011;38819;42.692;23.342;2023-03-01T00:34:02;4.88;;;3.53;;
52956;SDS011;38819;42.692;23.342;2023-03-01T00:36:30;4.90;;;3.47;;
52956;SDS011;38819;42.692;23.342;2023-03-01T00:38:57;4.25;;;3.53;;
52956;SDS011;38819;42.692;23.342;2023-03-01T00:41:23;4.00;;;2.70;;
52956;SDS011;38819;42.692;23.342;2023-03-01T00:43:51;4.25;;;3.50;;
52956;SDS011;38819;42.692;23.342;2023-03-01T00:46:20;3.08;;;2.83;;
52956;SDS011;38819;42.692;23.342;2023-03-01T00:48:47;4.03;;;3.55;;
52956;SDS011;38819;42.692;23.342;2023-03-01T00:51:17;4.28;;;3.10;;
52956;SDS011;38819;42.692;23.342;2023-03-01T00:53:44;3.53;;;3.22;;
52956;SDS011;38819;42.692;23.342;2023-03-01T00:56:10;3.20;;;2.90;;
52956;SDS011;38819;42.692;23.342;2023-03-01T00:58:37;3.97;;;3.58;;
52956;SDS011;38819;42.692;23.342;2023-03-01T01:01:13;4.78;;;3.33;;
52956;SDS011;38819;42.692;23.342;2023-03-01T01:03:48;4.80;;;3.08;;
52956;SDS011;38819;42.692;23.342;2023-03-01T01:06:20;3.80;;;3.08;;
52956;SDS011;38819;42.692;23.342;2023-03-01T01:08:48;3.58;;;2.80;;
52956;SDS011;38819;42.692;23.342;2023-03-01T01:11:14;3.88;;;3.30;;
52956;SDS011;38819;42.692;23.342;2023-03-01T01:13:41;3.15;;;2.92;;
52956;SDS011;38819;42.692;23.342;2023-03-01T01:18:34;5.50;;;2.65;;
52956;SDS011;38819;42.692;23.342;2023-03-01T01:21:06;2.92;;;2.63;;
52956;SDS011;38819;42.692;23.342;2023-03-01T01:23:34;2.75;;;2.55;;
52956;SDS011;38819;42.692;23.342;2023-03-01T01:26:11;4.60;;;2.50;;
52956;SDS011;38819;42.692;23.342;2023-03-01T01:28:40;3.00;;;2.65;;
52956;SDS011;38819;42.692;23.342;2023-03-01T01:31:06;4.90;;;2.53;;
52956;SDS011;38819;42.692;23.342;2023-03-01T01:33:32;2.10;;;1.90;;
52956;SDS011;38819;42.692;23.342;2023-03-01T01:35:58;2.72;;;2.20;;
52956;SDS011;38819;42.692;23.342;2023-03-01T01:38:24;6.20;;;2.20;;
52956;SDS011;38819;42.692;23.342;2023-03-01T01:40:50;2.45;;;2.30;;
52956;SDS011;38819;42.692;23.342;2023-03-01T01:43:18;2.15;;;1.95;;
52956;SDS011;38819;42.692;23.342;2023-03-01T01:45:46;2.45;;;2.25;;
52956;SDS011;38819;42.692;23.342;2023-03-01T01:48:12;2.08;;;1.98;;
52956;SDS011;38819;42.692;23.342;2023-03-01T01:50:42;2.50;;;2.35;;
52956;SDS011;38819;42.692;23.342;2023-03-01T01:53:11;1.95;;;1.85;;
52956;SDS011;38819;42.692;23.342;2023-03-01T01:55:42;1.85;;;1.75;;
52956;SDS011;38819;42.692;23.342;2023-03-01T01:58:11;4.25;;;2.03;;
52956;SDS011;38819;42.692;23.342;2023-03-01T02:00:38;1.77;;;1.63;;
52956;SDS011;38819;42.692;23.342;2023-03-01T02:03:07;1.67;;;1.60;;
52956;SDS011;38819;42.692;23.342;2023-03-01T02:05:46;3.97;;;1.50;;
52956;SDS011;38819;42.692;23.342;2023-03-01T02:08:18;1.55;;;1.45;;
52956;SDS011;38819;42.692;23.342;2023-03-01T02:10:45;1.30;;;1.30;;
52956;SDS011;38819;42.692;23.342;2023-03-01T02:13:13;1.60;;;1.50;;
52956;SDS011;38819;42.692;23.342;2023-03-01T02:15:39;1.63;;;1.52;;
52956;SDS011;38819;42.692;23.342;2023-03-01T02:18:06;1.40;;;1.40;;
52956;SDS011;38819;42.692;23.342;2023-03-01T02:20:43;1.33;;;1.27;;
52956;SDS011;38819;42.692;23.342;2023-03-01T02:23:16;1.67;;;1.58;;
52956;SDS011;38819;42.692;23.342;2023-03-01T02:28:20;3.17;;;1.73;;
52956;SDS011;38819;42.692;23.342;2023-03-01T02:30:56;1.63;;;1.52;;
52956;SDS011;38819;42.692;23.342;2023-03-01T02:33:40;2.10;;;2.00;;
52956;SDS011;38819;42.692;23.342;2023-03-01T02:36:09;1.98;;;1.88;;
52956;SDS011;38819;42.692;23.342;2023-03-01T02:38:42;1.90;;;1.80;;
52956;SDS011;38819;42.692;23.342;2023-03-01T02:41:08;1.80;;;1.70;;
52956;SDS011;38819;42.692;23.342;2023-03-01T02:43:35;1.83;;;1.73;;
52956;SDS011;38819;42.692;23.342;2023-03-01T02:46:03;2.30;;;2.10;;
52956;SDS011;38819;42.692;23.342;2023-03-01T02:56:53;1.88;;;1.77;;
52956;SDS011;38819;42.692;23.342;2023-03-01T02:59:22;2.05;;;1.95;;
52956;SDS011;38819;42.692;23.342;2023-03-01T03:01:52;1.90;;;1.80;;
52956;SDS011;38819;42.692;23.342;2023-03-01T03:04:18;2.28;;;2.08;;
52956;SDS011;38819;42.692;23.342;2023-03-01T03:06:46;1.70;;;1.60;;
52956;SDS011;38819;42.692;23.342;2023-03-01T03:11:39;2.25;;;2.05;;
52956;SDS011;38819;42.692;23.342;2023-03-01T03:14:07;8.25;;;2.47;;
52956;SDS011;38819;42.692;23.342;2023-03-01T03:16:39;4.28;;;2.30;;
52956;SDS011;38819;42.692;23.342;2023-03-01T03:19:06;2.30;;;2.20;;
52956;SDS011;38819;42.692;23.342;2023-03-01T03:21:31;4.80;;;2.60;;
52956;SDS011;38819;42.692;23.342;2023-03-01T03:23:58;2.47;;;2.28;;
52956;SDS011;38819;42.692;23.342;2023-03-01T03:26:23;2.72;;;2.53;;
52956;SDS011;38819;42.692;23.342;2023-03-01T03:28:49;3.00;;;2.80;;
52956;SDS011;38819;42.692;23.342;2023-03-01T03:31:15;5.43;;;2.60;;
52956;SDS011;38819;42.692;23.342;2023-03-01T03:33:40;3.10;;;2.40;;
52956;SDS011;38819;42.692;23.342;2023-03-01T03:36:06;2.72;;;2.38;;
52956;SDS011;38819;42.692;23.342;2023-03-01T03:38:31;2.13;;;2.03;;
52956;SDS011;38819;42.692;23.342;2023-03-01T03:41:02;3.83;;;2.88;;
52956;SDS011;38819;42.692;23.342;2023-03-01T03:43:30;2.88;;;2.67;;
52956;SDS011;38819;42.692;23.342;2023-03-01T03:45:57;7.50;;;2.22;;
52956;SDS011;38819;42.692;23.342;2023-03-01T03:48:23;2.67;;;2.47;;
52956;SDS011;38819;42.692;23.342;2023-03-01T03:50:50;2.63;;;2.42;;
52956;SDS011;38819;42.692;23.342;2023-03-01T03:55:43;3.30;;;2.80;;
52956;SDS011;38819;42.692;23.342;2023-03-01T03:58:09;3.08;;;2.88;;
52956;SDS011;38819;42.692;23.342;2023-03-01T04:03:02;7.15;;;4.38;;
52956;SDS011;38819;42.692;23.342;2023-03-01T04:05:28;4.13;;;3.70;;
52956;SDS011;38819;42.692;23.342;2023-03-01T04:07:54;3.58;;;3.10;;
52956;SDS011;38819;42.692;23.342;2023-03-01T04:13:02;3.40;;;3.10;;
52956;SDS011;38819;42.692;23.342;2023-03-01T04:15:29;3.08;;;2.88;;
52956;SDS011;38819;42.692;23.342;2023-03-01T04:17:56;2.75;;;2.55;;
52956;SDS011;38819;42.692;23.342;2023-03-01T04:20:24;3.45;;;3.15;;
52956;SDS011;38819;42.692;23.342;2023-03-01T04:22:55;3.53;;;2.70;;
52956;SDS011;38819;42.692;23.342;2023-03-01T04:25:38;7.65;;;2.30;;
52956;SDS011;38819;42.692;23.342;2023-03-01T04:28:04;2.58;;;2.38;;
52956;SDS011;38819;42.692;23.342;2023-03-01T04:30:30;2.90;;;2.70;;
52956;SDS011;38819;42.692;23.342;2023-03-01T04:33:00;2.75;;;2.55;;
52956;SDS011;38819;42.692;23.342;2023-03-01T04:35:27;3.88;;;2.63;;
52956;SDS011;38819;42.692;23.342;2023-03-01T04:37:52;5.07;;;2.70;;
52956;SDS011;38819;42.692;23.342;2023-03-01T04:40:18;6.38;;;2.33;;
52956;SDS011;38819;42.692;23.342;2023-03-01T04:42:43;4.90;;;2.67;;
52956;SDS011;38819;42.692;23.342;2023-03-01T04:45:09;7.68;;;3.17;;
52956;SDS011;38819;42.692;23.342;2023-03-01T04:47:44;10.02;;;2.92;;
52956;SDS011;38819;42.692;23.342;2023-03-01T04:50:12;12.00;;;3.35;;
52956;SDS011;38819;42.692;23.342;2023-03-01T04:52:42;2.78;;;2.58;;
52956;SDS011;38819;42.692;23.342;2023-03-01T04:55:08;3.30;;;3.00;;
52956;SDS011;38819;42.692;23.342;2023-03-01T04:57:34;4.20;;;2.65;;
52956;SDS011;38819;42.692;23.342;2023-03-01T05:00:00;5.70;;;2.70;;
52956;SDS011;38819;42.692;23.342;2023-03-01T05:02:25;4.90;;;2.97;;
52956;SDS011;38819;42.692;23.342;2023-03-01T05:04:51;7.53;;;3.75;;
52956;SDS011;38819;42.692;23.342;2023-03-01T05:07:16;3.15;;;2.85;;
52956;SDS011;38819;42.692;23.342;2023-03-01T05:12:13;3.50;;;3.20;;
52956;SDS011;38819;42.692;23.342;2023-03-01T05:14:39;9.80;;;4.00;;
52956;SDS011;38819;42.692;23.342;2023-03-01T05:17:05;6.20;;;3.67;;
52956;SDS011;38819;42.692;23.342;2023-03-01T05:19:31;4.35;;;3.45;;
52956;SDS011;38819;42.692;23.342;2023-03-01T05:21:57;3.90;;;3.20;;
52956;SDS011;38819;42.692;23.342;2023-03-01T05:24:26;6.05;;;3.90;;
52956;SDS011;38819;42.692;23.342;2023-03-01T05:26:52;6.40;;;4.90;;
52956;SDS011;38819;42.692;23.342;2023-03-01T05:29:19;6.60;;;4.43;;
52956;SDS011;38819;42.692;23.342;2023-03-01T05:31:50;4.45;;;4.03;;
52956;SDS011;38819;42.692;23.342;2023-03-01T05:34:22;5.15;;;4.15;;
52956;SDS011;38819;42.692;23.342;2023-03-01T05:36:50;7.90;;;4.00;;
52956;SDS011;38819;42.692;23.342;2023-03-01T05:39:18;6.88;;;4.55;;
52956;SDS011;38819;42.692;23.342;2023-03-01T05:41:46;5.60;;;4.13;;
52956;SDS011;38819;42.692;23.342;2023-03-01T05:44:11;7.13;;;4.57;;
52956;SDS011;38819;42.692;23.342;2023-03-01T05:46:37;8.40;;;4.45;;
52956;SDS011;38819;42.692;23.342;2023-03-01T05:49:02;8.02;;;4.25;;
52956;SDS011;38819;42.692;23.342;2023-03-01T05:51:30;8.05;;;4.45;;
52956;SDS011;38819;42.692;23.342;2023-03-01T05:53:58;5.88;;;4.53;;
52956;SDS011;38819;42.692;23.342;2023-03-01T05:56:23;9.38;;;4.35;;
52956;SDS011;38819;42.692;23.342;2023-03-01T05:58:49;12.82;;;4.80;;
52956;SDS011;38819;42.692;23.342;2023-03-01T06:01:15;6.43;;;4.65;;
52956;SDS011;38819;42.692;23.342;2023-03-01T06:03:40;5.45;;;4.00;;
52956;SDS011;38819;42.692;23.342;2023-03-01T06:06:05;5.20;;;3.90;;
52956;SDS011;38819;42.692;23.342;2023-03-01T06:08:31;4.75;;;4.25;;
52956;SDS011;38819;42.692;23.342;2023-03-01T06:10:57;6.95;;;3.53;;
52956;SDS011;38819;42.692;23.342;2023-03-01T06:13:22;6.45;;;3.63;;
52956;SDS011;38819;42.692;23.342;2023-03-01T06:15:48;7.07;;;3.40;;
52956;SDS011;38819;42.692;23.342;2023-03-01T06:18:14;6.35;;;3.80;;
52956;SDS011;38819;42.692;23.342;2023-03-01T06:20:39;6.47;;;3.75;;
52956;SDS011;38819;42.692;23.342;2023-03-01T06:23:04;4.80;;;3.33;;
52956;SDS011;38819;42.692;23.342;2023-03-01T06:25:30;6.25;;;3.33;;
52956;SDS011;38819;42.692;23.342;2023-03-01T06:27:57;4.33;;;3.93;;
52956;SDS011;38819;42.692;23.342;2023-03-01T06:30:23;9.80;;;3.70;;
52956;SDS011;38819;42.692;23.342;2023-03-01T06:32:50;5.20;;;3.42;;
52956;SDS011;38819;42.692;23.342;2023-03-01T06:35:17;4.03;;;2.70;;
52956;SDS011;38819;42.692;23.342;2023-03-01T06:37:44;6.65;;;2.75;;
52956;SDS011;38819;42.692;23.342;2023-03-01T06:40:10;2.53;;;2.33;;
52956;SDS011;38819;42.692;23.342;2023-03-01T06:42:36;3.35;;;3.10;;
52956;SDS011;38819;42.692;23.342;2023-03-01T06:45:04;3.08;;;2.78;;
52956;SDS011;38819;42.692;23.342;2023-03-01T06:47:30;5.63;;;3.08;;
52956;SDS011;38819;42.692;23.342;2023-03-01T06:49:58;2.97;;;2.78;;
52956;SDS011;38819;42.692;23.342;2023-03-01T06:52:24;5.00;;;2.60;;
52956;SDS011;38819;42.692;23.342;2023-03-01T06:54:49;11.25;;;2.75;;
52956;SDS011;38819;42.692;23.342;2023-03-01T06:57:15;9.75;;;3.10;;
52956;SDS011;38819;42.692;23.342;2023-03-01T06:59:40;4.72;;;3.28;;
52956;SDS011;38819;42.692;23.342;2023-03-01T07:02:05;13.65;;;3.53;;
52956;SDS011;38819;42.692;23.342;2023-03-01T07:04:31;2.78;;;2.55;;
52956;SDS011;38819;42.692;23.342;2023-03-01T07:06:56;3.47;;;2.90;;
52956;SDS011;38819;42.692;23.342;2023-03-01T07:09:22;3.47;;;3.17;;
52956;SDS011;38819;42.692;23.342;2023-03-01T07:11:48;10.95;;;3.55;;
52956;SDS011;38819;42.692;23.342;2023-03-01T07:14:14;5.75;;;3.05;;
52956;SDS011;38819;42.692;23.342;2023-03-01T07:16:39;3.53;;;2.65;;
52956;SDS011;38819;42.692;23.342;2023-03-01T07:19:05;7.57;;;3.00;;
52956;SDS011;38819;42.692;23.342;2023-03-01T07:21:30;10.02;;;3.75;;
52956;SDS011;38819;42.692;23.342;2023-03-01T07:23:56;17.05;;;3.83;;
52956;SDS011;38819;42.692;23.342;2023-03-01T07:26:21;5.30;;;3.13;;
52956;SDS011;38819;42.692;23.342;2023-03-01T07:28:47;5.95;;;3.08;;
52956;SDS011;38819;42.692;23.342;2023-03-01T07:31:12;7.90;;;3.67;;
52956;SDS011;38819;42.692;23.342;2023-03-01T07:33:38;3.72;;;2.88;;
52956;SDS011;38819;42.692;23.342;2023-03-01T07:36:04;7.95;;;2.97;;
52956;SDS011;38819;42.692;23.342;2023-03-01T07:38:31;5.80;;;2.67;;
52956;SDS011;38819;42.692;23.342;2023-03-01T07:41:00;14.90;;;3.95;;
52956;SDS011;38819;42.692;23.342;2023-03-01T07:43:28;16.63;;;3.72;;
52956;SDS011;38819;42.692;23.342;2023-03-01T07:45:54;6.93;;;3.00;;
52956;SDS011;38819;42.692;23.342;2023-03-01T07:48:22;5.85;;;2.58;;
52956;SDS011;38819;42.692;23.342;2023-03-01T07:50:48;8.40;;;3.35;;
52956;SDS011;38819;42.692;23.342;2023-03-01T07:53:13;13.93;;;3.78;;
52956;SDS011;38819;42.692;23.342;2023-03-01T07:55:39;5.97;;;2.28;;
52956;SDS011;38819;42.692;23.342;2023-03-01T07:58:04;9.27;;;3.05;;
52956;SDS011;38819;42.692;23.342;2023-03-01T08:00:31;5.03;;;2.50;;
52956;SDS011;38819;42.692;23.342;2023-03-01T08:02:58;15.95;;;3.35;;
52956;SDS011;38819;42.692;23.342;2023-03-01T08:05:25;4.40;;;2.60;;
52956;SDS011;38819;42.692;23.342;2023-03-01T08:07:50;4.28;;;2.50;;
52956;SDS011;38819;42.692;23.342;2023-03-01T08:10:16;6.95;;;2.90;;
52956;SDS011;38819;42.692;23.342;2023-03-01T08:12:41;5.57;;;3.53;;
52956;SDS011;38819;42.692;23.342;2023-03-01T08:15:07;8.10;;;2.97;;
52956;SDS011;38819;42.692;23.342;2023-03-01T08:17:33;9.32;;;3.67;;
52956;SDS011;38819;42.692;23.342;2023-03-01T08:19:58;13.57;;;3.38;;
52956;SDS011;38819;42.692;23.342;2023-03-01T08:22:24;5.82;;;3.15;;
52956;SDS011;38819;42.692;23.342;2023-03-01T08:24:49;5.10;;;2.42;;
52956;SDS011;38819;42.692;23.342;2023-03-01T08:27:15;8.75;;;2.88;;
52956;SDS011;38819;42.692;23.342;2023-03-01T08:29:41;6.95;;;2.10;;
52956;SDS011;38819;42.692;23.342;2023-03-01T08:32:07;7.15;;;3.05;;
52956;SDS011;38819;42.692;23.342;2023-03-01T08:34:33;12.77;;;3.60;;
52956;SDS011;38819;42.692;23.342;2023-03-01T08:37:00;5.53;;;2.78;;
52956;SDS011;38819;42.692;23.342;2023-03-01T08:39:26;4.30;;;2.83;;
52956;SDS011;38819;42.692;23.342;2023-03-01T08:41:52;5.57;;;2.15;;
52956;SDS011;38819;42.692;23.342;2023-03-01T08:44:17;9.77;;;2.55;;
52956;SDS011;38819;42.692;23.342;2023-03-01T08:46:44;4.35;;;2.63;;
52956;SDS011;38819;42.692;23.342;2023-03-01T08:49:14;5.78;;;3.08;;
52956;SDS011;38819;42.692;23.342;2023-03-01T08:51:40;6.47;;;3.00;;
52956;SDS011;38819;42.692;23.342;2023-03-01T08:54:10;8.15;;;2.78;;
52956;SDS011;38819;42.692;23.342;2023-03-01T08:56:38;8.18;;;2.65;;
52956;SDS011;38819;42.692;23.342;2023-03-01T08:59:03;4.35;;;2.53;;
52956;SDS011;38819;42.692;23.342;2023-03-01T09:01:29;5.43;;;3.00;;
52956;SDS011;38819;42.692;23.342;2023-03-01T09:03:54;11.73;;;3.10;;
52956;SDS011;38819;42.692;23.342;2023-03-01T09:06:20;7.70;;;2.65;;
52956;SDS011;38819;42.692;23.342;2023-03-01T09:08:46;4.55;;;2.33;;
52956;SDS011;38819;42.692;23.342;2023-03-01T09:11:18;7.25;;;2.47;;
52956;SDS011;38819;42.692;23.342;2023-03-01T09:13:46;9.63;;;2.60;;
52956;SDS011;38819;42.692;23.342;2023-03-01T09:16:13;3.40;;;2.55;;
52956;SDS011;38819;42.692;23.342;2023-03-01T09:18:40;5.93;;;2.13;;
52956;SDS011;38819;42.692;23.342;2023-03-01T09:21:07;5.47;;;2.10;;
52956;SDS011;38819;42.692;23.342;2023-03-01T09:23:38;5.38;;;2.33;;
52956;SDS011;38819;42.692;23.342;2023-03-01T09:26:09;6.22;;;2.40;;
52956;SDS011;38819;42.692;23.342;2023-03-01T09:28:36;6.93;;;2.38;;
52956;SDS011;38819;42.692;23.342;2023-03-01T09:31:02;3.35;;;2.53;;
52956;SDS011;38819;42.692;23.342;2023-03-01T09:33:29;2.55;;;2.30;;
52956;SDS011;38819;42.692;23.342;2023-03-01T09:36:03;4.50;;;2.63;;
52956;SDS011;38819;42.692;23.342;2023-03-01T09:38:31;6.60;;;2.72;;
52956;SDS011;38819;42.692;23.342;2023-03-01T09:40:56;4.60;;;1.95;;
52956;SDS011;38819;42.692;23.342;2023-03-01T09:46:10;9.00;;;2.60;;
52956;SDS011;38819;42.692;23.342;2023-03-01T09:48:42;7.57;;;2.90;;
52956;SDS011;38819;42.692;23.342;2023-03-01T09:51:16;4.20;;;2.10;;
52956;SDS011;38819;42.692;23.342;2023-03-01T09:53:44;6.38;;;2.67;;
52956;SDS011;38819;42.692;23.342;2023-03-01T09:56:12;3.17;;;1.92;;
52956;SDS011;38819;42.692;23.342;2023-03-01T10:06:29;3.17;;;1.73;;
52956;SDS011;38819;42.692;23.342;2023-03-01T10:08:58;5.60;;;1.98;;
52956;SDS011;38819;42.692;23.342;2023-03-01T10:11:32;2.70;;;1.60;;
52956;SDS011;38819;42.692;23.342;2023-03-01T10:19:31;4.20;;;1.67;;
52956;SDS011;38819;42.692;23.342;2023-03-01T10:22:25;4.68;;;1.80;;
52956;SDS011;38819;42.692;23.342;2023-03-01T10:24:50;2.55;;;1.50;;
52956;SDS011;38819;42.692;23.342;2023-03-01T10:27:25;7.45;;;2.60;;
52956;SDS011;38819;42.692;23.342;2023-03-01T10:32:42;2.28;;;1.90;;
52956;SDS011;38819;42.692;23.342;2023-03-01T10:35:16;7.68;;;2.22;;
52956;SDS011;38819;42.692;23.342;2023-03-01T10:37:56;3.88;;;2.05;;
52956;SDS011;38819;42.692;23.342;2023-03-01T10:40:35;2.20;;;2.00;;
52956;SDS011;38819;42.692;23.342;2023-03-01T10:43:14;2.63;;;2.15;;
52956;SDS011;38819;42.692;23.342;2023-03-01T10:45:39;1.83;;;1.70;;
52956;SDS011;38819;42.692;23.342;2023-03-01T10:48:08;6.32;;;1.90;;
52956;SDS011;38819;42.692;23.342;2023-03-01T10:50:40;2.40;;;1.63;;
52956;SDS011;38819;42.692;23.342;2023-03-01T10:56:09;5.57;;;1.58;;
52956;SDS011;38819;42.692;23.342;2023-03-01T10:58:40;3.30;;;1.10;;
52956;SDS011;38819;42.692;23.342;2023-03-01T11:01:33;4.78;;;3.22;;
52956;SDS011;38819;42.692;23.342;2023-03-01T11:06:35;2.45;;;1.50;;
52956;SDS011;38819;42.692;23.342;2023-03-01T11:11:49;7.95;;;2.72;;
52956;SDS011;38819;42.692;23.342;2023-03-01T11:14:20;2.95;;;1.75;;
52956;SDS011;38819;42.692;23.342;2023-03-01T11:16:48;9.27;;;3.92;;
52956;SDS011;38819;42.692;23.342;2023-03-01T11:24:53;1.30;;;1.20;;
52956;SDS011;38819;42.692;23.342;2023-03-01T11:27:24;1.77;;;1.67;;
52956;SDS011;38819;42.692;23.342;2023-03-01T11:30:00;1.92;;;1.75;;
52956;SDS011;38819;42.692;23.342;2023-03-01T11:32:45;6.35;;;1.80;;
52956;SDS011;38819;42.692;23.342;2023-03-01T11:41:03;1.52;;;1.40;;
52956;SDS011;38819;42.692;23.342;2023-03-01T11:43:50;2.00;;;1.63;;
52956;SDS011;38819;42.692;23.342;2023-03-01T11:56:54;2.28;;;2.05;;
52956;SDS011;38819;42.692;23.342;2023-03-01T11:59:55;3.35;;;2.10;;
52956;SDS011;38819;42.692;23.342;2023-03-01T12:05:34;4.57;;;1.88;;
52956;SDS011;38819;42.692;23.342;2023-03-01T12:08:10;5.80;;;2.42;;
52956;SDS011;38819;42.692;23.342;2023-03-01T12:26:42;5.78;;;2.67;;
52956;SDS011;38819;42.692;23.342;2023-03-01T12:34:47;3.38;;;2.95;;
52956;SDS011;38819;42.692;23.342;2023-03-01T12:39:44;4.07;;;2.70;;
52956;SDS011;38819;42.692;23.342;2023-03-01T12:48:15;6.78;;;3.33;;
52956;SDS011;38819;42.692;23.342;2023-03-01T12:51:02;5.25;;;2.55;;
52956;SDS011;38819;42.692;23.342;2023-03-01T12:53:35;4.30;;;3.28;;
52956;SDS011;38819;42.692;23.342;2023-03-01T12:56:08;5.40;;;2.53;;
52956;SDS011;38819;42.692;23.342;2023-03-01T12:58:59;3.47;;;2.83;;
52956;SDS011;38819;42.692;23.342;2023-03-01T13:01:57;3.88;;;2.40;;
52956;SDS011;38819;42.692;23.342;2023-03-01T13:07:23;6.88;;;3.10;;
52956;SDS011;38819;42.692;23.342;2023-03-01T13:12:47;5.55;;;2.65;;
52956;SDS011;38819;42.692;23.342;2023-03-01T13:20:45;7.40;;;2.83;;
52956;SDS011;38819;42.692;23.342;2023-03-01T13:30:57;4.13;;;2.72;;
52956;SDS011;38819;42.692;23.342;2023-03-01T13:35:48;3.33;;;2.85;;
52956;SDS011;38819;42.692;23.342;2023-03-01T13:41:01;4.00;;;2.42;;
52956;SDS011;38819;42.692;23.342;2023-03-01T13:43:37;5.97;;;2.83;;
52956;SDS011;38819;42.692;23.342;2023-03-01T13:46:38;8.55;;;3.42;;
52956;SDS011;38819;42.692;23.342;2023-03-01T13:48:58;3.33;;;2.60;;
52956;SDS011;38819;42.692;23.342;2023-03-01T13:51:25;3.38;;;2.65;;
52956;SDS011;38819;42.692;23.342;2023-03-01T13:53:52;2.53;;;2.30;;
52956;SDS011;38819;42.692;23.342;2023-03-01T13:56:33;6.07;;;2.90;;
52956;SDS011;38819;42.692;23.342;2023-03-01T13:59:18;4.22;;;2.60;;
52956;SDS011;38819;42.692;23.342;2023-03-01T14:01:51;8.82;;;2.65;;
52956;SDS011;38819;42.692;23.342;2023-03-01T14:06:48;5.45;;;2.80;;
52956;SDS011;38819;42.692;23.342;2023-03-01T14:09:18;6.05;;;3.00;;
52956;SDS011;38819;42.692;23.342;2023-03-01T14:20:25;2.88;;;2.55;;
52956;SDS011;38819;42.692;23.342;2023-03-01T14:22:53;4.90;;;2.85;;
52956;SDS011;38819;42.692;23.342;2023-03-01T14:25:26;6.80;;;2.80;;
52956;SDS011;38819;42.692;23.342;2023-03-01T14:31:21;4.90;;;3.08;;
52956;SDS011;38819;42.692;23.342;2023-03-01T14:34:19;3.30;;;2.80;;
52956;SDS011;38819;42.692;23.342;2023-03-01T14:36:49;5.03;;;2.90;;
52956;SDS011;38819;42.692;23.342;2023-03-01T14:39:19;4.53;;;3.00;;
52956;SDS011;38819;42.692;23.342;2023-03-01T14:41:48;5.72;;;3.38;;
52956;SDS011;38819;42.692;23.342;2023-03-01T14:44:16;7.28;;;3.40;;
52956;SDS011;38819;42.692;23.342;2023-03-01T14:46:51;3.83;;;2.60;;
52956;SDS011;38819;42.692;23.342;2023-03-01T14:49:20;13.77;;;3.17;;
52956;SDS011;38819;42.692;23.342;2023-03-01T14:54:37;10.52;;;2.97;;
52956;SDS011;38819;42.692;23.342;2023-03-01T14:57:12;4.40;;;2.47;;
52956;SDS011;38819;42.692;23.342;2023-03-01T14:59:40;7.80;;;3.28;;
52956;SDS011;38819;42.692;23.342;2023-03-01T15:02:08;9.13;;;2.88;;
52956;SDS011;38819;42.692;23.342;2023-03-01T15:04:42;5.22;;;2.97;;
52956;SDS011;38819;42.692;23.342;2023-03-01T15:07:12;3.67;;;2.88;;
52956;SDS011;38819;42.692;23.342;2023-03-01T15:09:39;5.05;;;3.33;;
52956;SDS011;38819;42.692;23.342;2023-03-01T15:12:25;7.93;;;3.35;;
52956;SDS011;38819;42.692;23.342;2023-03-01T15:14:50;10.00;;;3.33;;
52956;SDS011;38819;42.692;23.342;2023-03-01T15:19:50;5.00;;;3.17;;
52956;SDS011;38819;42.692;23.342;2023-03-01T15:22:15;7.18;;;2.80;;
52956;SDS011;38819;42.692;23.342;2023-03-01T15:24:41;9.25;;;3.60;;
52956;SDS011;38819;42.692;23.342;2023-03-01T15:27:14;4.32;;;3.22;;
52956;SDS011;38819;42.692;23.342;2023-03-01T15:29:47;4.65;;;3.63;;
52956;SDS011;38819;42.692;23.342;2023-03-01T15:32:30;10.60;;;3.50;;
52956;SDS011;38819;42.692;23.342;2023-03-01T15:34:59;10.93;;;4.05;;
52956;SDS011;38819;42.692;23.342;2023-03-01T15:37:46;7.97;;;3.75;;
52956;SDS011;38819;42.692;23.342;2023-03-01T15:42:56;5.20;;;2.95;;
52956;SDS011;38819;42.692;23.342;2023-03-01T15:45:23;7.30;;;3.33;;
52956;SDS011;38819;42.692;23.342;2023-03-01T15:47:59;11.45;;;3.80;;
52956;SDS011;38819;42.692;23.342;2023-03-01T15:50:43;13.32;;;5.30;;
52956;SDS011;38819;42.692;23.342;2023-03-01T15:53:19;10.25;;;5.50;;
52956;SDS011;38819;42.692;23.342;2023-03-01T15:55:45;12.48;;;5.25;;
52956;SDS011;38819;42.692;23.342;2023-03-01T15:58:15;16.90;;;6.32;;
52956;SDS011;38819;42.692;23.342;2023-03-01T16:00:46;10.02;;;5.35;;
52956;SDS011;38819;42.692;23.342;2023-03-01T16:03:13;8.68;;;4.72;;
52956;SDS011;38819;42.692;23.342;2023-03-01T16:05:46;6.95;;;4.40;;
52956;SDS011;38819;42.692;23.342;2023-03-01T16:08:12;8.73;;;4.50;;
52956;SDS011;38819;42.692;23.342;2023-03-01T16:10:39;8.23;;;3.97;;
52956;SDS011;38819;42.692;23.342;2023-03-01T16:13:05;6.68;;;3.65;;
52956;SDS011;38819;42.692;23.342;2023-03-01T16:15:32;11.85;;;4.60;;
52956;SDS011;38819;42.692;23.342;2023-03-01T16:18:01;10.60;;;4.25;;
52956;SDS011;38819;42.692;23.342;2023-03-01T16:20:28;6.45;;;3.72;;
52956;SDS011;38819;42.692;23.342;2023-03-01T16:22:55;17.20;;;4.28;;
52956;SDS011;38819;42.692;23.342;2023-03-01T16:25:25;5.63;;;3.63;;
52956;SDS011;38819;42.692;23.342;2023-03-01T16:27:50;12.82;;;4.30;;
52956;SDS011;38819;42.692;23.342;2023-03-01T16:30:18;6.25;;;3.38;;
52956;SDS011;38819;42.692;23.342;2023-03-01T16:32:46;7.72;;;3.35;;
52956;SDS011;38819;42.692;23.342;2023-03-01T16:35:13;6.82;;;3.63;;
52956;SDS011;38819;42.692;23.342;2023-03-01T16:37:40;7.20;;;3.80;;
52956;SDS011;38819;42.692;23.342;2023-03-01T16:40:07;8.15;;;3.92;;
52956;SDS011;38819;42.692;23.342;2023-03-01T16:42:49;11.70;;;3.80;;
52956;SDS011;38819;42.692;23.342;2023-03-01T16:45:15;11.68;;;4.28;;
52956;SDS011;38819;42.692;23.342;2023-03-01T16:47:41;8.63;;;4.70;;
52956;SDS011;38819;42.692;23.342;2023-03-01T16:50:07;7.45;;;3.53;;
52956;SDS011;38819;42.692;23.342;2023-03-01T16:52:33;8.70;;;4.90;;
52956;SDS011;38819;42.692;23.342;2023-03-01T16:54:59;9.60;;;4.30;;
52956;SDS011;38819;42.692;23.342;2023-03-01T16:57:24;8.70;;;4.88;;
52956;SDS011;38819;42.692;23.342;2023-03-01T16:59:53;9.15;;;4.30;;
52956;SDS011;38819;42.692;23.342;2023-03-01T17:02:18;7.85;;;4.68;;
52956;SDS011;38819;42.692;23.342;2023-03-01T17:04:45;11.38;;;5.18;;
52956;SDS011;38819;42.692;23.342;2023-03-01T17:07:10;7.93;;;4.60;;
52956;SDS011;38819;42.692;23.342;2023-03-01T17:09:36;11.57;;;5.60;;
52956;SDS011;38819;42.692;23.342;2023-03-01T17:12:04;6.13;;;4.88;;
52956;SDS011;38819;42.692;23.342;2023-03-01T17:14:30;12.77;;;5.57;;
52956;SDS011;38819;42.692;23.342;2023-03-01T17:16:55;11.70;;;5.55;;
52956;SDS011;38819;42.692;23.342;2023-03-01T17:19:21;7.72;;;5.57;;